sensor_id;sensor_type;location;lat;lon;timestamp;pressure;altitude;pressure_sealevel;temperature;humidity
72677;BME280;60755;51.374;10.662;2023-03-01T00:01:02;98453.38;;;-4.91;89.01
72677;BME280;60755;51.374;10.662;2023-03-01T00:03:30;98453.09;;;-4.99;91.12
72677;BME280;60755;51.374;10.662;2023-03-01T00:05:57;98447.41;;;-4.79;89.99
72677;BME280;60755;51.374;10.662;2023-03-01T00:08:25;98445.91;;;-4.94;89.22
72677;BME280;60755;51.374;10.662;2023-03-01T00:11:02;98445.94;;;-4.46;87.50
72677;BME280;60755;51.374;10.662;2023-03-01T00:13:29;98448.28;;;-4.67;87.66
72677;BME280;60755;51.374;10.662;2023-03-01T00:15:56;98451.84;;;-4.81;88.30
72677;BME280;60755;51.374;10.662;2023-03-01T00:18:24;98453.78;;;-4.61;88.46
72677;BME280;60755;51.374;10.662;2023-03-01T00:20:51;98446.41;;;-4.89;88.48
72677;BME280;60755;51.374;10.662;2023-03-01T00:23:19;98445.41;;;-4.99;90.19
72677;BME280;60755;51.374;10.662;2023-03-01T00:25:47;98448.66;;;-4.85;90.42
72677;BME280;60755;51.374;10.662;2023-03-01T00:28:16;98451.09;;;-4.83;88.62
72677;BME280;60755;51.374;10.662;2023-03-01T00:30:44;98448.78;;;-4.99;89.53
72677;BME280;60755;51.374;10.662;2023-03-01T00:33:11;98455.56;;;-4.74;89.57
72677;BME280;60755;51.374;10.662;2023-03-01T00:35:38;98451.59;;;-4.78;89.98
72677;BME280;60755;51.374;10.662;2023-03-01T00:38:06;98447.69;;;-4.71;89.28
72677;BME280;60755;51.374;10.662;2023-03-01T00:40:35;98441.09;;;-4.62;89.07
72677;BME280;60755;51.374;10.662;2023-03-01T00:43:02;98435.59;;;-4.34;87.84
72677;BME280;60755;51.374;10.662;2023-03-01T00:45:32;98426.38;;;-4.36;87.67
72677;BME280;60755;51.374;10.662;2023-03-01T00:48:00;98434.44;;;-4.41;87.14
72677;BME280;60755;51.374;10.662;2023-03-01T00:50:27;98432.31;;;-4.36;86.89
72677;BME280;60755;51.374;10.662;2023-03-01T00:52:55;98432.56;;;-4.39;87.64
72677;BME280;60755;51.374;10.662;2023-03-01T00:55:23;98436.63;;;-4.36;86.46
72677;BME280;60755;51.374;10.662;2023-03-01T00:57:51;98431.59;;;-4.49;87.74
72677;BME280;60755;51.374;10.662;2023-03-01T01:00:19;98436.34;;;-4.56;87.19
72677;BME280;60755;51.374;10.662;2023-03-01T01:02:49;98430.97;;;-4.53;88.26
72677;BME280;60755;51.374;10.662;2023-03-01T01:05:16;98439.88;;;-4.69;88.18
72677;BME280;60755;51.374;10.662;2023-03-01T01:07:47;98428.97;;;-4.60;88.39
72677;BME280;60755;51.374;10.662;2023-03-01T01:10:14;98426.28;;;-4.59;87.41
72677;BME280;60755;51.374;10.662;2023-03-01T01:12:44;98410.97;;;-4.71;88.89
72677;BME280;60755;51.374;10.662;2023-03-01T01:15:11;98401.56;;;-4.60;87.78
72677;BME280;60755;51.374;10.662;2023-03-01T01:17:40;98394.03;;;-4.50;87.54
72677;BME280;60755;51.374;10.662;2023-03-01T01:20:10;98403.19;;;-4.59;88.55
72677;BME280;60755;51.374;10.662;2023-03-01T01:22:37;98394.94;;;-4.62;88.84
72677;BME280;60755;51.374;10.662;2023-03-01T01:25:05;98389.94;;;-4.53;88.31
72677;BME280;60755;51.374;10.662;2023-03-01T01:27:33;98394.16;;;-4.52;87.30
72677;BME280;60755;51.374;10.662;2023-03-01T01:30:00;98383.63;;;-4.60;87.15
72677;BME280;60755;51.374;10.662;2023-03-01T01:32:28;98388.91;;;-4.74;88.15
72677;BME280;60755;51.374;10.662;2023-03-01T01:34:55;98385.22;;;-4.70;89.44
72677;BME280;60755;51.374;10.662;2023-03-01T01:37:24;98387.34;;;-4.64;89.18
72677;BME280;60755;51.374;10.662;2023-03-01T01:39:57;98375.47;;;-4.65;88.76
72677;BME280;60755;51.374;10.662;2023-03-01T01:42:26;98383.75;;;-4.61;87.63
72677;BME280;60755;51.374;10.662;2023-03-01T01:45:26;98378.28;;;-4.57;88.15
72677;BME280;60755;51.374;10.662;2023-03-01T01:47:55;98385.22;;;-4.70;87.86
72677;BME280;60755;51.374;10.662;2023-03-01T01:50:25;98388.44;;;-4.79;87.90
72677;BME280;60755;51.374;10.662;2023-03-01T01:52:54;98379.75;;;-4.65;88.17
72677;BME280;60755;51.374;10.662;2023-03-01T01:55:23;98384.94;;;-4.54;88.46
72677;BME280;60755;51.374;10.662;2023-03-01T01:57:54;98381.69;;;-4.45;87.23
72677;BME280;60755;51.374;10.662;2023-03-01T02:00:28;98387.56;;;-4.32;87.95
72677;BME280;60755;51.374;10.662;2023-03-01T02:02:59;98385.94;;;-4.33;87.20
72677;BME280;60755;51.374;10.662;2023-03-01T02:05:33;98380.50;;;-4.17;86.61
72677;BME280;60755;51.374;10.662;2023-03-01T02:08:03;98371.63;;;-4.13;86.83
72677;BME280;60755;51.374;10.662;2023-03-01T02:10:33;98365.94;;;-4.05;85.66
72677;BME280;60755;51.374;10.662;2023-03-01T02:13:02;98352.41;;;-4.07;85.24
72677;BME280;60755;51.374;10.662;2023-03-01T02:15:32;98361.81;;;-4.19;86.00
72677;BME280;60755;51.374;10.662;2023-03-01T02:18:01;98350.75;;;-4.19;86.97
72677;BME280;60755;51.374;10.662;2023-03-01T02:20:33;98334.88;;;-4.13;85.37
72677;BME280;60755;51.374;10.662;2023-03-01T02:23:03;98343.88;;;-4.08;85.28
72677;BME280;60755;51.374;10.662;2023-03-01T02:25:36;98333.84;;;-4.11;86.15
72677;BME280;60755;51.374;10.662;2023-03-01T02:30:40;98338.97;;;-4.22;86.51
72677;BME280;60755;51.374;10.662;2023-03-01T02:33:29;98338.97;;;-4.11;86.80
72677;BME280;60755;51.374;10.662;2023-03-01T02:35:58;98336.44;;;-4.00;86.84
72677;BME280;60755;51.374;10.662;2023-03-01T02:38:27;98336.88;;;-4.06;86.07
72677;BME280;60755;51.374;10.662;2023-03-01T02:40:56;98346.91;;;-4.03;85.31
72677;BME280;60755;51.374;10.662;2023-03-01T02:43:27;98336.63;;;-4.14;85.31
72677;BME280;60755;51.374;10.662;2023-03-01T02:46:03;98338.47;;;-4.27;86.05
72677;BME280;60755;51.374;10.662;2023-03-01T02:48:40;98338.72;;;-4.19;86.28
72677;BME280;60755;51.374;10.662;2023-03-01T02:51:14;98342.44;;;-4.34;88.17
72677;BME280;60755;51.374;10.662;2023-03-01T02:53:53;98346.59;;;-4.44;88.44
72677;BME280;60755;51.374;10.662;2023-03-01T02:56:23;98339.59;;;-4.54;88.10
72677;BME280;60755;51.374;10.662;2023-03-01T02:58:51;98336.22;;;-4.54;87.49
72677;BME280;60755;51.374;10.662;2023-03-01T03:01:21;98324.09;;;-4.52;89.20
72677;BME280;60755;51.374;10.662;2023-03-01T03:03:48;98323.78;;;-4.36;88.68
72677;BME280;60755;51.374;10.662;2023-03-01T03:06:17;98318.53;;;-4.35;87.71
72677;BME280;60755;51.374;10.662;2023-03-01T03:08:44;98317.84;;;-4.26;87.98
72677;BME280;60755;51.374;10.662;2023-03-01T03:11:11;98321.47;;;-4.28;86.60
72677;BME280;60755;51.374;10.662;2023-03-01T03:13:39;98314.25;;;-4.23;87.34
72677;BME280;60755;51.374;10.662;2023-03-01T03:16:14;98318.06;;;-4.17;85.90
72677;BME280;60755;51.374;10.662;2023-03-01T03:18:43;98318.22;;;-4.08;86.42
72677;BME280;60755;51.374;10.662;2023-03-01T03:21:11;98312.50;;;-4.23;87.41
72677;BME280;60755;51.374;10.662;2023-03-01T03:23:39;98305.00;;;-4.26;87.53
72677;BME280;60755;51.374;10.662;2023-03-01T03:26:06;98311.44;;;-4.31;87.04
72677;BME280;60755;51.374;10.662;2023-03-01T03:28:34;98317.75;;;-4.24;86.39
72677;BME280;60755;51.374;10.662;2023-03-01T03:31:05;98321.69;;;-4.31;86.87
72677;BME280;60755;51.374;10.662;2023-03-01T03:33:33;98317.72;;;-4.35;87.29
72677;BME280;60755;51.374;10.662;2023-03-01T03:36:03;98317.25;;;-4.29;87.46
72677;BME280;60755;51.374;10.662;2023-03-01T03:38:30;98329.72;;;-4.47;88.76
72677;BME280;60755;51.374;10.662;2023-03-01T03:41:02;98328.31;;;-4.40;87.85
72677;BME280;60755;51.374;10.662;2023-03-01T03:43:32;98319.13;;;-4.20;86.66
72677;BME280;60755;51.374;10.662;2023-03-01T03:46:00;98327.75;;;-4.32;86.23
72677;BME280;60755;51.374;10.662;2023-03-01T03:48:32;98313.50;;;-4.47;87.17
72677;BME280;60755;51.374;10.662;2023-03-01T03:51:01;98309.94;;;-4.69;87.66
72677;BME280;60755;51.374;10.662;2023-03-01T03:53:31;98313.03;;;-4.88;88.30
72677;BME280;60755;51.374;10.662;2023-03-01T03:55:59;98311.16;;;-4.97;90.63
72677;BME280;60755;51.374;10.662;2023-03-01T03:58:26;98307.16;;;-5.01;90.19
72677;BME280;60755;51.374;10.662;2023-03-01T04:00:55;98312.81;;;-5.09;90.16
72677;BME280;60755;51.374;10.662;2023-03-01T04:03:24;98317.53;;;-5.26;90.73
72677;BME280;60755;51.374;10.662;2023-03-01T04:05:52;98321.44;;;-5.33;91.43
72677;BME280;60755;51.374;10.662;2023-03-01T04:08:22;98321.47;;;-5.46;92.18
72677;BME280;60755;51.374;10.662;2023-03-01T04:10:52;98317.28;;;-5.47;92.13
72677;BME280;60755;51.374;10.662;2023-03-01T04:13:20;98308.91;;;-5.25;92.75
72677;BME280;60755;51.374;10.662;2023-03-01T04:15:48;98309.94;;;-5.28;92.41
72677;BME280;60755;51.374;10.662;2023-03-01T04:18:17;98304.31;;;-5.33;92.75
72677;BME280;60755;51.374;10.662;2023-03-01T04:20:46;98301.78;;;-5.33;92.09
72677;BME280;60755;51.374;10.662;2023-03-01T04:23:15;98300.56;;;-5.40;92.08
72677;BME280;60755;51.374;10.662;2023-03-01T04:25:48;98289.22;;;-5.25;93.34
72677;BME280;60755;51.374;10.662;2023-03-01T04:28:19;98293.50;;;-5.13;92.43
72677;BME280;60755;51.374;10.662;2023-03-01T04:30:46;98297.41;;;-5.20;92.14
72677;BME280;60755;51.374;10.662;2023-03-01T04:33:14;98298.97;;;-5.30;91.76
72677;BME280;60755;51.374;10.662;2023-03-01T04:35:41;98307.88;;;-5.23;92.31
72677;BME280;60755;51.374;10.662;2023-03-01T04:38:08;98297.41;;;-5.20;92.21
72677;BME280;60755;51.374;10.662;2023-03-01T04:40:36;98296.06;;;-5.13;91.63
72677;BME280;60755;51.374;10.662;2023-03-01T04:43:05;98297.72;;;-5.00;91.15
72677;BME280;60755;51.374;10.662;2023-03-01T04:45:32;98295.19;;;-4.89;90.23
72677;BME280;60755;51.374;10.662;2023-03-01T04:48:01;98296.38;;;-4.82;90.80
72677;BME280;60755;51.374;10.662;2023-03-01T04:50:29;98296.16;;;-4.79;89.47
72677;BME280;60755;51.374;10.662;2023-03-01T04:52:57;98304.13;;;-4.71;89.73
72677;BME280;60755;51.374;10.662;2023-03-01T04:55:26;98302.84;;;-4.65;89.29
72677;BME280;60755;51.374;10.662;2023-03-01T04:57:54;98298.56;;;-4.65;89.25
72677;BME280;60755;51.374;10.662;2023-03-01T05:00:23;98300.19;;;-4.64;88.18
72677;BME280;60755;51.374;10.662;2023-03-01T05:02:52;98304.56;;;-4.77;88.49
72677;BME280;60755;51.374;10.662;2023-03-01T05:05:25;98301.41;;;-4.81;89.47
72677;BME280;60755;51.374;10.662;2023-03-01T05:07:54;98288.91;;;-4.96;89.78
72677;BME280;60755;51.374;10.662;2023-03-01T05:10:22;98290.91;;;-4.89;90.07
72677;BME280;60755;51.374;10.662;2023-03-01T05:12:49;98289.63;;;-4.83;89.86
72677;BME280;60755;51.374;10.662;2023-03-01T05:15:18;98288.59;;;-4.81;90.30
72677;BME280;60755;51.374;10.662;2023-03-01T05:17:49;98284.03;;;-4.88;90.66
72677;BME280;60755;51.374;10.662;2023-03-01T05:20:16;98291.75;;;-4.66;88.84
72677;BME280;60755;51.374;10.662;2023-03-01T05:22:44;98294.75;;;-4.83;90.16
72677;BME280;60755;51.374;10.662;2023-03-01T05:25:11;98294.34;;;-5.01;90.47
72677;BME280;60755;51.374;10.662;2023-03-01T05:27:39;98288.13;;;-5.10;91.19
72677;BME280;60755;51.374;10.662;2023-03-01T05:30:08;98288.81;;;-5.19;90.63
72677;BME280;60755;51.374;10.662;2023-03-01T05:32:41;98284.88;;;-5.12;91.38
72677;BME280;60755;51.374;10.662;2023-03-01T05:35:13;98285.75;;;-5.24;91.75
72677;BME280;60755;51.374;10.662;2023-03-01T05:37:42;98280.84;;;-5.27;92.88
72677;BME280;60755;51.374;10.662;2023-03-01T05:40:11;98280.41;;;-5.21;93.01
72677;BME280;60755;51.374;10.662;2023-03-01T05:42:43;98275.72;;;-5.03;91.71
72677;BME280;60755;51.374;10.662;2023-03-01T05:45:11;98279.59;;;-5.21;91.02
72677;BME280;60755;51.374;10.662;2023-03-01T05:47:39;98286.28;;;-5.31;91.64
72677;BME280;60755;51.374;10.662;2023-03-01T05:50:13;98281.44;;;-5.47;92.42
72677;BME280;60755;51.374;10.662;2023-03-01T05:52:46;98280.78;;;-5.38;93.86
72677;BME280;60755;51.374;10.662;2023-03-01T05:55:14;98279.69;;;-5.23;91.39
72677;BME280;60755;51.374;10.662;2023-03-01T05:57:42;98279.41;;;-5.07;92.24
72677;BME280;60755;51.374;10.662;2023-03-01T06:00:11;98278.22;;;-5.14;91.50
72677;BME280;60755;51.374;10.662;2023-03-01T06:02:39;98290.25;;;-5.03;91.33
72677;BME280;60755;51.374;10.662;2023-03-01T06:05:07;98280.34;;;-5.08;91.29
72677;BME280;60755;51.374;10.662;2023-03-01T06:07:37;98275.47;;;-5.00;91.28
72677;BME280;60755;51.374;10.662;2023-03-01T06:10:05;98279.47;;;-4.96;90.09
72677;BME280;60755;51.374;10.662;2023-03-01T06:12:34;98280.72;;;-5.01;90.67
72677;BME280;60755;51.374;10.662;2023-03-01T06:15:03;98282.31;;;-5.12;91.67
72677;BME280;60755;51.374;10.662;2023-03-01T06:17:31;98281.59;;;-5.14;91.81
72677;BME280;60755;51.374;10.662;2023-03-01T06:19:59;98284.69;;;-4.97;91.41
72677;BME280;60755;51.374;10.662;2023-03-01T06:22:26;98278.91;;;-4.19;88.65
72677;BME280;60755;51.374;10.662;2023-03-01T06:24:55;98276.09;;;-3.28;84.45
72677;BME280;60755;51.374;10.662;2023-03-01T06:27:22;98280.19;;;-2.52;80.82
72677;BME280;60755;51.374;10.662;2023-03-01T06:29:49;98285.84;;;-1.66;77.12
72677;BME280;60755;51.374;10.662;2023-03-01T06:32:17;98276.00;;;-0.55;72.75
72677;BME280;60755;51.374;10.662;2023-03-01T06:34:44;98276.00;;;0.29;69.55
72677;BME280;60755;51.374;10.662;2023-03-01T06:37:11;98270.41;;;-0.04;69.21
72677;BME280;60755;51.374;10.662;2023-03-01T06:39:38;98276.38;;;0.97;65.74
72677;BME280;60755;51.374;10.662;2023-03-01T06:42:08;98277.84;;;2.21;61.18
72677;BME280;60755;51.374;10.662;2023-03-01T06:44:37;98284.69;;;2.31;59.21
72677;BME280;60755;51.374;10.662;2023-03-01T06:47:04;98290.59;;;2.41;60.74
72677;BME280;60755;51.374;10.662;2023-03-01T06:49:32;98286.13;;;2.67;58.95
72677;BME280;60755;51.374;10.662;2023-03-01T06:51:59;98283.00;;;2.64;58.76
72677;BME280;60755;51.374;10.662;2023-03-01T06:54:26;98278.22;;;2.93;58.63
72677;BME280;60755;51.374;10.662;2023-03-01T06:56:53;98283.47;;;2.43;59.67
72677;BME280;60755;51.374;10.662;2023-03-01T06:59:22;98280.78;;;2.18;60.60
72677;BME280;60755;51.374;10.662;2023-03-01T07:01:49;98286.44;;;2.72;59.70
72677;BME280;60755;51.374;10.662;2023-03-01T07:04:17;98286.00;;;2.85;59.81
72677;BME280;60755;51.374;10.662;2023-03-01T07:06:44;98280.19;;;3.56;57.62
72677;BME280;60755;51.374;10.662;2023-03-01T07:09:11;98275.16;;;3.22;57.60
72677;BME280;60755;51.374;10.662;2023-03-01T07:11:38;98284.38;;;1.22;63.34
72677;BME280;60755;51.374;10.662;2023-03-01T07:14:05;98282.47;;;-0.32;68.40
72677;BME280;60755;51.374;10.662;2023-03-01T07:16:34;98278.63;;;-0.94;72.07
72677;BME280;60755;51.374;10.662;2023-03-01T07:19:01;98282.28;;;-1.25;73.40
72677;BME280;60755;51.374;10.662;2023-03-01T07:21:29;98283.69;;;-1.61;74.74
72677;BME280;60755;51.374;10.662;2023-03-01T07:23:56;98281.25;;;-1.63;75.34
72677;BME280;60755;51.374;10.662;2023-03-01T07:26:23;98284.25;;;-1.58;75.88
72677;BME280;60755;51.374;10.662;2023-03-01T07:28:50;98289.78;;;-1.62;74.86
72677;BME280;60755;51.374;10.662;2023-03-01T07:31:18;98282.47;;;-1.57;76.28
72677;BME280;60755;51.374;10.662;2023-03-01T07:33:46;98276.53;;;-1.48;75.06
72677;BME280;60755;51.374;10.662;2023-03-01T07:36:13;98279.63;;;-1.54;76.13
72677;BME280;60755;51.374;10.662;2023-03-01T07:38:40;98275.34;;;-1.44;76.10
72677;BME280;60755;51.374;10.662;2023-03-01T07:41:08;98276.00;;;-1.42;75.71
72677;BME280;60755;51.374;10.662;2023-03-01T07:43:35;98266.78;;;-1.35;75.64
72677;BME280;60755;51.374;10.662;2023-03-01T07:46:03;98273.56;;;-1.24;75.58
72677;BME280;60755;51.374;10.662;2023-03-01T07:48:31;98276.16;;;-1.15;75.18
72677;BME280;60755;51.374;10.662;2023-03-01T07:51:00;98282.13;;;-1.14;74.26
72677;BME280;60755;51.374;10.662;2023-03-01T07:53:28;98277.81;;;-1.04;74.21
72677;BME280;60755;51.374;10.662;2023-03-01T07:56:04;98264.50;;;-0.99;74.34
72677;BME280;60755;51.374;10.662;2023-03-01T07:58:33;98264.63;;;-0.81;74.38
72677;BME280;60755;51.374;10.662;2023-03-01T08:01:01;98266.25;;;-0.80;74.12
72677;BME280;60755;51.374;10.662;2023-03-01T08:03:29;98266.66;;;-0.75;74.49
72677;BME280;60755;51.374;10.662;2023-03-01T08:06:01;98268.94;;;-0.72;73.74
72677;BME280;60755;51.374;10.662;2023-03-01T08:08:28;98268.38;;;-0.57;74.85
72677;BME280;60755;51.374;10.662;2023-03-01T08:10:56;98269.47;;;-0.49;72.52
72677;BME280;60755;51.374;10.662;2023-03-01T08:13:23;98274.06;;;-0.43;73.89
72677;BME280;60755;51.374;10.662;2023-03-01T08:15:51;98266.88;;;-0.40;72.30
72677;BME280;60755;51.374;10.662;2023-03-01T08:18:19;98268.34;;;-0.37;72.84
72677;BME280;60755;51.374;10.662;2023-03-01T08:20:47;98270.78;;;-0.36;72.74
72677;BME280;60755;51.374;10.662;2023-03-01T08:23:16;98269.44;;;-0.30;72.20
72677;BME280;60755;51.374;10.662;2023-03-01T08:25:43;98267.09;;;-0.33;72.08
72677;BME280;60755;51.374;10.662;2023-03-01T08:28:10;98262.34;;;-0.28;73.22
72677;BME280;60755;51.374;10.662;2023-03-01T08:30:37;98262.63;;;-0.31;71.30
72677;BME280;60755;51.374;10.662;2023-03-01T08:33:05;98258.69;;;-0.35;72.60
72677;BME280;60755;51.374;10.662;2023-03-01T08:35:32;98253.59;;;-0.17;71.90
72677;BME280;60755;51.374;10.662;2023-03-01T08:37:59;98251.56;;;-0.14;71.58
72677;BME280;60755;51.374;10.662;2023-03-01T08:40:28;98256.84;;;-0.06;71.46
72677;BME280;60755;51.374;10.662;2023-03-01T08:42:55;98252.91;;;-0.10;71.50
72677;BME280;60755;51.374;10.662;2023-03-01T08:45:22;98254.63;;;-0.01;73.34
72677;BME280;60755;51.374;10.662;2023-03-01T08:47:52;98254.59;;;0.09;73.22
72677;BME280;60755;51.374;10.662;2023-03-01T08:50:19;98252.97;;;0.08;73.39
72677;BME280;60755;51.374;10.662;2023-03-01T08:52:46;98252.13;;;0.08;72.49
72677;BME280;60755;51.374;10.662;2023-03-01T08:55:14;98254.06;;;0.06;72.02
72677;BME280;60755;51.374;10.662;2023-03-01T08:57:44;98259.47;;;0.12;71.22
72677;BME280;60755;51.374;10.662;2023-03-01T09:00:12;98253.75;;;0.18;72.83
72677;BME280;60755;51.374;10.662;2023-03-01T09:02:40;98254.22;;;0.04;70.31
72677;BME280;60755;51.374;10.662;2023-03-01T09:05:08;98252.63;;;-0.07;71.46
72677;BME280;60755;51.374;10.662;2023-03-01T09:07:35;98255.59;;;-0.02;70.34
72677;BME280;60755;51.374;10.662;2023-03-01T09:10:03;98255.56;;;0.08;71.37
72677;BME280;60755;51.374;10.662;2023-03-01T09:12:31;98247.75;;;0.18;70.98
72677;BME280;60755;51.374;10.662;2023-03-01T09:14:59;98249.38;;;0.19;71.31
72677;BME280;60755;51.374;10.662;2023-03-01T09:17:27;98246.66;;;0.20;71.41
72677;BME280;60755;51.374;10.662;2023-03-01T09:19:54;98248.22;;;0.31;70.31
72677;BME280;60755;51.374;10.662;2023-03-01T09:22:21;98241.00;;;0.35;69.22
72677;BME280;60755;51.374;10.662;2023-03-01T09:24:48;98248.13;;;0.23;70.70
72677;BME280;60755;51.374;10.662;2023-03-01T09:27:15;98243.13;;;0.39;69.15
72677;BME280;60755;51.374;10.662;2023-03-01T09:29:44;98244.97;;;0.29;70.29
72677;BME280;60755;51.374;10.662;2023-03-01T09:32:13;98237.16;;;0.39;69.17
72677;BME280;60755;51.374;10.662;2023-03-01T09:34:40;98247.06;;;0.43;69.69
72677;BME280;60755;51.374;10.662;2023-03-01T09:37:22;98240.69;;;0.65;70.28
72677;BME280;60755;51.374;10.662;2023-03-01T09:39:49;98241.19;;;0.69;68.47
72677;BME280;60755;51.374;10.662;2023-03-01T09:42:16;98239.94;;;0.73;69.08
72677;BME280;60755;51.374;10.662;2023-03-01T09:44:47;98250.88;;;0.84;70.04
72677;BME280;60755;51.374;10.662;2023-03-01T09:47:21;98244.38;;;0.80;68.54
72677;BME280;60755;51.374;10.662;2023-03-01T09:49:58;98245.63;;;0.59;69.54
72677;BME280;60755;51.374;10.662;2023-03-01T09:52:33;98239.72;;;0.66;70.03
72677;BME280;60755;51.374;10.662;2023-03-01T09:55:08;98231.88;;;0.76;68.76
72677;BME280;60755;51.374;10.662;2023-03-01T09:57:44;98235.19;;;0.86;69.38
72677;BME280;60755;51.374;10.662;2023-03-01T10:00:20;98234.03;;;0.98;69.79
72677;BME280;60755;51.374;10.662;2023-03-01T10:02:57;98226.84;;;0.92;69.87
72677;BME280;60755;51.374;10.662;2023-03-01T10:05:36;98229.50;;;1.00;68.49
72677;BME280;60755;51.374;10.662;2023-03-01T10:08:26;98230.69;;;0.88;68.22
72677;BME280;60755;51.374;10.662;2023-03-01T10:10:57;98230.31;;;1.01;68.87
72677;BME280;60755;51.374;10.662;2023-03-01T10:13:28;98227.56;;;1.02;67.24
72677;BME280;60755;51.374;10.662;2023-03-01T10:16:01;98232.31;;;1.07;68.04
72677;BME280;60755;51.374;10.662;2023-03-01T10:18:32;98234.91;;;1.07;67.02
72677;BME280;60755;51.374;10.662;2023-03-01T10:21:12;98230.53;;;1.07;68.93
72677;BME280;60755;51.374;10.662;2023-03-01T10:23:41;98226.00;;;1.09;68.81
72677;BME280;60755;51.374;10.662;2023-03-01T10:26:34;98221.22;;;1.15;68.71
72677;BME280;60755;51.374;10.662;2023-03-01T10:29:07;98223.84;;;1.23;68.11
72677;BME280;60755;51.374;10.662;2023-03-01T10:31:40;98220.63;;;1.21;67.07
72677;BME280;60755;51.374;10.662;2023-03-01T10:34:15;98211.94;;;1.30;66.75
72677;BME280;60755;51.374;10.662;2023-03-01T10:36:45;98197.88;;;1.32;67.74
72677;BME280;60755;51.374;10.662;2023-03-01T10:39:16;98204.94;;;1.48;68.29
72677;BME280;60755;51.374;10.662;2023-03-01T10:42:02;98211.31;;;1.36;66.67
72677;BME280;60755;51.374;10.662;2023-03-01T10:44:42;98209.78;;;1.51;67.15
72677;BME280;60755;51.374;10.662;2023-03-01T10:47:19;98208.63;;;1.72;67.86
72677;BME280;60755;51.374;10.662;2023-03-01T10:49:59;98210.69;;;1.68;66.36
72677;BME280;60755;51.374;10.662;2023-03-01T10:52:32;98214.72;;;1.62;66.20
72677;BME280;60755;51.374;10.662;2023-03-01T10:55:03;98204.03;;;1.65;64.92
72677;BME280;60755;51.374;10.662;2023-03-01T10:57:34;98208.63;;;1.72;63.60
72677;BME280;60755;51.374;10.662;2023-03-01T11:00:21;98195.09;;;1.86;66.07
72677;BME280;60755;51.374;10.662;2023-03-01T11:02:51;98202.91;;;1.94;65.13
72677;BME280;60755;51.374;10.662;2023-03-01T11:05:29;98199.94;;;1.89;65.33
72677;BME280;60755;51.374;10.662;2023-03-01T11:08:00;98198.13;;;1.81;63.83
72677;BME280;60755;51.374;10.662;2023-03-01T11:10:30;98196.94;;;1.67;65.15
72677;BME280;60755;51.374;10.662;2023-03-01T11:13:08;98196.38;;;1.90;65.59
72677;BME280;60755;51.374;10.662;2023-03-01T11:15:40;98182.09;;;1.78;64.86
72677;BME280;60755;51.374;10.662;2023-03-01T11:18:19;98183.53;;;1.72;65.24
72677;BME280;60755;51.374;10.662;2023-03-01T11:20:49;98188.28;;;1.85;66.27
72677;BME280;60755;51.374;10.662;2023-03-01T11:23:20;98182.75;;;1.80;65.20
72677;BME280;60755;51.374;10.662;2023-03-01T11:25:53;98180.50;;;1.85;66.41
72677;BME280;60755;51.374;10.662;2023-03-01T11:28:22;98181.81;;;1.89;64.68
72677;BME280;60755;51.374;10.662;2023-03-01T11:30:54;98185.78;;;2.09;66.04
72677;BME280;60755;51.374;10.662;2023-03-01T11:33:31;98188.84;;;2.05;65.69
72677;BME280;60755;51.374;10.662;2023-03-01T11:36:05;98178.91;;;1.92;64.43
72677;BME280;60755;51.374;10.662;2023-03-01T11:38:35;98179.91;;;1.99;62.72
72677;BME280;60755;51.374;10.662;2023-03-01T11:41:06;98186.69;;;2.00;62.40
72677;BME280;60755;51.374;10.662;2023-03-01T11:43:42;98175.03;;;1.96;61.81
72677;BME280;60755;51.374;10.662;2023-03-01T11:46:34;98170.84;;;2.03;61.83
72677;BME280;60755;51.374;10.662;2023-03-01T11:49:15;98167.16;;;2.22;59.08
72677;BME280;60755;51.374;10.662;2023-03-01T11:51:54;98158.91;;;2.18;59.98
72677;BME280;60755;51.374;10.662;2023-03-01T11:54:33;98176.09;;;2.28;57.32
72677;BME280;60755;51.374;10.662;2023-03-01T11:57:11;98168.94;;;2.21;59.63
72677;BME280;60755;51.374;10.662;2023-03-01T12:08:35;98155.56;;;2.59;59.66
72677;BME280;60755;51.374;10.662;2023-03-01T12:11:12;98165.78;;;2.60;59.49
72677;BME280;60755;51.374;10.662;2023-03-01T12:14:17;98161.88;;;2.72;59.21
72677;BME280;60755;51.374;10.662;2023-03-01T12:17:03;98149.56;;;2.66;60.15
72677;BME280;60755;51.374;10.662;2023-03-01T12:19:53;98157.34;;;2.66;57.39
72677;BME280;60755;51.374;10.662;2023-03-01T12:22:30;98150.69;;;2.72;60.28
72677;BME280;60755;51.374;10.662;2023-03-01T12:25:27;98144.69;;;2.55;59.88
72677;BME280;60755;51.374;10.662;2023-03-01T12:31:05;98135.94;;;2.72;59.77
72677;BME280;60755;51.374;10.662;2023-03-01T12:33:45;98127.34;;;2.72;58.56
72677;BME280;60755;51.374;10.662;2023-03-01T12:36:31;98123.63;;;2.74;57.98
72677;BME280;60755;51.374;10.662;2023-03-01T12:39:13;98134.66;;;2.85;56.66
72677;BME280;60755;51.374;10.662;2023-03-01T12:41:50;98126.69;;;2.86;57.81
72677;BME280;60755;51.374;10.662;2023-03-01T12:44:31;98124.91;;;2.78;56.60
72677;BME280;60755;51.374;10.662;2023-03-01T12:47:10;98145.66;;;3.03;57.18
72677;BME280;60755;51.374;10.662;2023-03-01T12:49:41;98128.00;;;2.90;55.91
72677;BME280;60755;51.374;10.662;2023-03-01T12:52:16;98124.25;;;2.85;58.16
72677;BME280;60755;51.374;10.662;2023-03-01T12:54:46;98127.19;;;2.98;58.67
72677;BME280;60755;51.374;10.662;2023-03-01T12:57:20;98121.66;;;3.01;56.73
72677;BME280;60755;51.374;10.662;2023-03-01T13:00:02;98116.63;;;2.99;58.41
72677;BME280;60755;51.374;10.662;2023-03-01T13:02:39;98116.78;;;3.06;58.50
72677;BME280;60755;51.374;10.662;2023-03-01T13:05:24;98123.88;;;3.20;57.42
72677;BME280;60755;51.374;10.662;2023-03-01T13:07:59;98117.09;;;3.11;57.50
72677;BME280;60755;51.374;10.662;2023-03-01T13:10:33;98099.59;;;3.05;56.16
72677;BME280;60755;51.374;10.662;2023-03-01T13:13:13;98103.78;;;3.14;57.24
72677;BME280;60755;51.374;10.662;2023-03-01T13:15:40;98083.66;;;3.08;58.08
72677;BME280;60755;51.374;10.662;2023-03-01T13:18:31;98088.00;;;3.24;59.51
72677;BME280;60755;51.374;10.662;2023-03-01T13:21:01;98086.88;;;3.18;57.32
72677;BME280;60755;51.374;10.662;2023-03-01T13:23:33;98093.22;;;3.16;57.32
72677;BME280;60755;51.374;10.662;2023-03-01T13:26:06;98087.88;;;3.17;58.55